sensor_id;sensor_type;location;lat;lon;timestamp;pressure;altitude;pressure_sealevel;temperature;humidity
44309;BME280;30022;55.846;37.340;2023-05-06T00:02:03;46663.63;;;-143.51;100.00
44309;BME280;30022;55.846;37.340;2023-05-06T00:04:28;46649.78;;;-143.51;100.00
44309;BME280;30022;55.846;37.340;2023-05-06T00:06:54;46677.44;;;-143.51;100.00
44309;BME280;30022;55.846;37.340;2023-05-06T00:09:21;46685.34;;;-143.51;100.00
44309;BME280;30022;55.846;37.340;2023-05-06T00:11:48;46714.97;;;-143.51;100.00
44309;BME280;30022;55.846;37.340;2023-05-06T00:14:14;46673.50;;;-143.51;100.00
44309;BME280;30022;55.846;37.340;2023-05-06T00:16:40;46711.00;;;-143.51;100.00
44309;BME280;30022;55.846;37.340;2023-05-06T00:19:05;46752.47;;;-143.51;100.00
44309;BME280;30022;55.846;37.340;2023-05-06T00:21:31;46740.63;;;-143.51;100.00
44309;BME280;30022;55.846;37.340;2023-05-06T00:23:56;46752.47;;;-143.51;100.00
44309;BME280;30022;55.846;37.340;2023-05-06T00:26:22;46740.63;;;-143.51;100.00
44309;BME280;30022;55.846;37.340;2023-05-06T00:28:48;46778.16;;;-143.51;100.00
44309;BME280;30022;55.846;37.340;2023-05-06T00:31:13;46764.34;;;-143.51;100.00
44309;BME280;30022;55.846;37.340;2023-05-06T00:33:39;46788.03;;;-143.51;100.00
44309;BME280;30022;55.846;37.340;2023-05-06T00:36:05;46841.34;;;-143.51;100.00
44309;BME280;30022;55.846;37.340;2023-05-06T00:38:31;46835.44;;;-143.51;100.00
44309;BME280;30022;55.846;37.340;2023-05-06T00:40:57;46847.28;;;-143.51;100.00
44309;BME280;30022;55.846;37.340;2023-05-06T00:43:23;46799.88;;;-143.51;100.00
44309;BME280;30022;55.846;37.340;2023-05-06T00:45:49;46863.09;;;-143.51;100.00
44309;BME280;30022;55.846;37.340;2023-05-06T00:48:15;46843.34;;;-143.51;100.00
44309;BME280;30022;55.846;37.340;2023-05-06T00:50:41;46841.34;;;-143.51;100.00
44309;BME280;30022;55.846;37.340;2023-05-06T00:53:07;46874.94;;;-143.51;100.00
44309;BME280;30022;55.846;37.340;2023-05-06T00:55:33;46894.69;;;-143.51;100.00
44309;BME280;30022;55.846;37.340;2023-05-06T00:57:58;46878.88;;;-143.51;100.00
44309;BME280;30022;55.846;37.340;2023-05-06T01:00:24;46872.97;;;-143.51;100.00
44309;BME280;30022;55.846;37.340;2023-05-06T01:02:50;46880.84;;;-143.51;100.00
44309;BME280;30022;55.846;37.340;2023-05-06T01:05:16;46946.03;;;-143.51;100.00
44309;BME280;30022;55.846;37.340;2023-05-06T01:07:53;46922.34;;;-143.51;100.00
44309;BME280;30022;55.846;37.340;2023-05-06T01:15:19;46965.78;;;-143.51;100.00
44309;BME280;30022;55.846;37.340;2023-05-06T01:17:46;46975.66;;;-143.51;100.00
44309;BME280;30022;55.846;37.340;2023-05-06T01:20:15;46973.69;;;-143.51;100.00
44309;BME280;30022;55.846;37.340;2023-05-06T01:22:42;46981.59;;;-143.51;100.00
44309;BME280;30022;55.846;37.340;2023-05-06T01:25:16;46946.03;;;-143.51;100.00
44309;BME280;30022;55.846;37.340;2023-05-06T01:27:42;46995.41;;;-143.51;100.00
44309;BME280;30022;55.846;37.340;2023-05-06T01:30:08;47044.78;;;-143.51;100.00
44309;BME280;30022;55.846;37.340;2023-05-06T01:32:44;47011.22;;;-143.51;100.00
44309;BME280;30022;55.846;37.340;2023-05-06T01:37:49;47058.59;;;-143.51;100.00
44309;BME280;30022;55.846;37.340;2023-05-06T01:40:17;47038.84;;;-143.51;100.00
44309;BME280;30022;55.846;37.340;2023-05-06T01:42:45;47050.72;;;-143.51;100.00
44309;BME280;30022;55.846;37.340;2023-05-06T01:45:13;47030.97;;;-143.51;100.00
44309;BME280;30022;55.846;37.340;2023-05-06T01:47:40;47076.38;;;-143.51;100.00
44309;BME280;30022;55.846;37.340;2023-05-06T01:50:06;47080.34;;;-143.51;100.00
44309;BME280;30022;55.846;37.340;2023-05-06T01:52:32;47113.91;;;-143.51;100.00
44309;BME280;30022;55.846;37.340;2023-05-06T01:54:57;47076.38;;;-143.51;100.00
44309;BME280;30022;55.846;37.340;2023-05-06T01:57:23;47074.41;;;-143.51;100.00
44309;BME280;30022;55.846;37.340;2023-05-06T01:59:49;47137.59;;;-143.51;100.00
44309;BME280;30022;55.846;37.340;2023-05-06T02:02:15;47153.41;;;-143.51;100.00
44309;BME280;30022;55.846;37.340;2023-05-06T02:04:41;47179.09;;;-143.51;100.00
44309;BME280;30022;55.846;37.340;2023-05-06T02:07:06;47119.84;;;-143.51;100.00
44309;BME280;30022;55.846;37.340;2023-05-06T02:09:32;47161.31;;;-143.51;100.00
44309;BME280;30022;55.846;37.340;2023-05-06T02:12:00;47224.50;;;-143.51;100.00
44309;BME280;30022;55.846;37.340;2023-05-06T02:14:26;47163.28;;;-143.51;100.00
44309;BME280;30022;55.846;37.340;2023-05-06T02:16:52;47220.56;;;-143.51;100.00
44309;BME280;30022;55.846;37.340;2023-05-06T02:19:19;47287.72;;;-143.51;100.00
44309;BME280;30022;55.846;37.340;2023-05-06T02:21:45;47240.31;;;-143.51;100.00
44309;BME280;30022;55.846;37.340;2023-05-06T02:24:10;47206.75;;;-143.51;100.00
44309;BME280;30022;55.846;37.340;2023-05-06T02:26:36;47206.75;;;-143.51;100.00
44309;BME280;30022;55.846;37.340;2023-05-06T02:29:02;47187.00;;;-143.51;100.00
44309;BME280;30022;55.846;37.340;2023-05-06T02:31:29;47194.88;;;-143.51;100.00
44309;BME280;30022;55.846;37.340;2023-05-06T02:33:54;47242.28;;;-143.51;100.00
44309;BME280;30022;55.846;37.340;2023-05-06T02:36:20;47147.47;;;-143.51;100.00
44309;BME280;30022;55.846;37.340;2023-05-06T02:38:45;47159.34;;;-143.51;100.00
44309;BME280;30022;55.846;37.340;2023-05-06T02:41:11;47187.00;;;-143.51;100.00
44309;BME280;30022;55.846;37.340;2023-05-06T02:43:37;47151.44;;;-143.51;100.00
44309;BME280;30022;55.846;37.340;2023-05-06T02:46:03;47115.88;;;-143.51;100.00
44309;BME280;30022;55.846;37.340;2023-05-06T02:48:29;47070.47;;;-143.51;100.00
44309;BME280;30022;55.846;37.340;2023-05-06T02:50:55;47064.53;;;-143.51;100.00
44309;BME280;30022;55.846;37.340;2023-05-06T02:53:21;47119.84;;;-143.51;100.00
44309;BME280;30022;55.846;37.340;2023-05-06T02:55:46;47068.47;;;-143.51;100.00
44309;BME280;30022;55.846;37.340;2023-05-06T02:58:13;47125.75;;;-143.51;100.00
44309;BME280;30022;55.846;37.340;2023-05-06T03:00:39;47163.28;;;-143.51;100.00
44309;BME280;30022;55.846;37.340;2023-05-06T03:03:05;47149.47;;;-143.51;100.00
44309;BME280;30022;55.846;37.340;2023-05-06T03:05:30;47165.25;;;-143.51;100.00
44309;BME280;30022;55.846;37.340;2023-05-06T03:07:56;47149.47;;;-143.51;100.00
44309;BME280;30022;55.846;37.340;2023-05-06T03:10:22;47149.47;;;-143.51;100.00
44309;BME280;30022;55.846;37.340;2023-05-06T03:12:48;47129.72;;;-143.51;100.00
44309;BME280;30022;55.846;37.340;2023-05-06T03:15:14;47100.09;;;-143.51;100.00
44309;BME280;30022;55.846;37.340;2023-05-06T03:17:39;47078.34;;;-143.51;100.00
44309;BME280;30022;55.846;37.340;2023-05-06T03:20:06;47056.63;;;-143.51;100.00
44309;BME280;30022;55.846;37.340;2023-05-06T03:22:34;47019.09;;;-143.51;100.00
44309;BME280;30022;55.846;37.340;2023-05-06T03:25:00;46993.44;;;-143.51;100.00
44309;BME280;30022;55.846;37.340;2023-05-06T03:27:28;46953.94;;;-143.51;100.00
44309;BME280;30022;55.846;37.340;2023-05-06T03:29:59;46926.28;;;-143.51;100.00
44309;BME280;30022;55.846;37.340;2023-05-06T03:32:25;46948.00;;;-143.51;100.00
44309;BME280;30022;55.846;37.340;2023-05-06T03:34:51;46922.34;;;-143.51;100.00
44309;BME280;30022;55.846;37.340;2023-05-06T03:37:19;46934.19;;;-143.51;100.00
44309;BME280;30022;55.846;37.340;2023-05-06T03:39:49;46932.22;;;-143.51;100.00
44309;BME280;30022;55.846;37.340;2023-05-06T03:42:17;46934.19;;;-143.51;100.00
44309;BME280;30022;55.846;37.340;2023-05-06T03:44:44;46942.09;;;-143.51;100.00
44309;BME280;30022;55.846;37.340;2023-05-06T03:47:10;46922.34;;;-143.51;100.00
44309;BME280;30022;55.846;37.340;2023-05-06T03:49:36;46910.47;;;-143.51;100.00
44309;BME280;30022;55.846;37.340;2023-05-06T03:52:02;46906.53;;;-143.51;100.00
44309;BME280;30022;55.846;37.340;2023-05-06T03:54:28;46910.47;;;-143.51;100.00
44309;BME280;30022;55.846;37.340;2023-05-06T03:56:54;46884.81;;;-143.51;100.00
44309;BME280;30022;55.846;37.340;2023-05-06T03:59:20;46878.88;;;-143.51;100.00
44309;BME280;30022;55.846;37.340;2023-05-06T04:01:49;46857.16;;;-143.51;100.00
44309;BME280;30022;55.846;37.340;2023-05-06T04:04:15;46845.31;;;-143.51;100.00
44309;BME280;30022;55.846;37.340;2023-05-06T04:06:41;46867.03;;;-143.51;100.00
44309;BME280;30022;55.846;37.340;2023-05-06T04:09:07;46825.56;;;-143.51;100.00
44309;BME280;30022;55.846;37.340;2023-05-06T04:11:35;46841.34;;;-143.51;100.00
44309;BME280;30022;55.846;37.340;2023-05-06T04:14:02;46817.66;;;-143.51;100.00
44309;BME280;30022;55.846;37.340;2023-05-06T04:16:28;46791.97;;;-143.51;100.00
44309;BME280;30022;55.846;37.340;2023-05-06T04:18:53;46803.84;;;-143.51;100.00
44309;BME280;30022;55.846;37.340;2023-05-06T04:21:19;46788.03;;;-143.51;100.00
44309;BME280;30022;55.846;37.340;2023-05-06T04:23:51;46788.03;;;-143.51;100.00
44309;BME280;30022;55.846;37.340;2023-05-06T04:26:24;46752.47;;;-143.51;100.00
44309;BME280;30022;55.846;37.340;2023-05-06T04:28:49;46764.34;;;-143.51;100.00
44309;BME280;30022;55.846;37.340;2023-05-06T04:31:16;46734.72;;;-143.51;100.00
44309;BME280;30022;55.846;37.340;2023-05-06T04:33:47;46760.38;;;-143.51;100.00
44309;BME280;30022;55.846;37.340;2023-05-06T04:36:16;46752.47;;;-143.51;100.00
44309;BME280;30022;55.846;37.340;2023-05-06T04:38:51;46732.75;;;-143.51;100.00
44309;BME280;30022;55.846;37.340;2023-05-06T04:41:17;46756.44;;;-143.51;100.00
44309;BME280;30022;55.846;37.340;2023-05-06T04:43:44;46732.75;;;-143.51;100.00
44309;BME280;30022;55.846;37.340;2023-05-06T04:46:17;46732.75;;;-143.51;100.00
44309;BME280;30022;55.846;37.340;2023-05-06T04:48:44;46724.84;;;-143.51;100.00
44309;BME280;30022;55.846;37.340;2023-05-06T04:51:12;46709.03;;;-143.51;100.00
44309;BME280;30022;55.846;37.340;2023-05-06T04:53:38;46740.63;;;-143.51;100.00
44309;BME280;30022;55.846;37.340;2023-05-06T04:56:05;46738.66;;;-143.51;100.00
44309;BME280;30022;55.846;37.340;2023-05-06T04:58:31;46705.09;;;-143.51;100.00
44309;BME280;30022;55.846;37.340;2023-05-06T05:00:58;46705.09;;;-143.51;100.00
44309;BME280;30022;55.846;37.340;2023-05-06T05:03:23;46714.97;;;-143.51;100.00
44309;BME280;30022;55.846;37.340;2023-05-06T05:05:51;46683.38;;;-143.51;100.00
44309;BME280;30022;55.846;37.340;2023-05-06T05:08:18;46699.16;;;-143.51;100.00
44309;BME280;30022;55.846;37.340;2023-05-06T05:10:43;46701.13;;;-143.51;100.00
44309;BME280;30022;55.846;37.340;2023-05-06T05:13:13;46697.19;;;-143.51;100.00
44309;BME280;30022;55.846;37.340;2023-05-06T05:15:38;46677.44;;;-143.51;100.00
44309;BME280;30022;55.846;37.340;2023-05-06T05:18:04;46689.28;;;-143.51;100.00
44309;BME280;30022;55.846;37.340;2023-05-06T05:20:30;46681.38;;;-143.51;100.00
44309;BME280;30022;55.846;37.340;2023-05-06T05:22:58;46677.44;;;-143.51;100.00
44309;BME280;30022;55.846;37.340;2023-05-06T05:25:23;46641.88;;;-143.51;100.00
44309;BME280;30022;55.846;37.340;2023-05-06T05:27:49;46637.94;;;-143.51;100.00
44309;BME280;30022;55.846;37.340;2023-05-06T05:30:15;46620.16;;;-143.51;100.00
44309;BME280;30022;55.846;37.340;2023-05-06T05:32:41;46624.13;;;-143.51;100.00
44309;BME280;30022;55.846;37.340;2023-05-06T05:35:07;46610.28;;;-143.51;100.00
44309;BME280;30022;55.846;37.340;2023-05-06T05:37:35;46634.00;;;-143.51;100.00
44309;BME280;30022;55.846;37.340;2023-05-06T05:40:01;46608.31;;;-143.51;100.00
44309;BME280;30022;55.846;37.340;2023-05-06T05:42:29;46624.13;;;-143.51;100.00
44309;BME280;30022;55.846;37.340;2023-05-06T05:45:01;46639.91;;;-143.51;100.00
44309;BME280;30022;55.846;37.340;2023-05-06T05:47:28;46622.16;;;-143.51;100.00
44309;BME280;30022;55.846;37.340;2023-05-06T05:49:54;46614.25;;;-143.51;100.00
44309;BME280;30022;55.846;37.340;2023-05-06T05:52:20;46624.13;;;-143.51;100.00
44309;BME280;30022;55.846;37.340;2023-05-06T05:54:46;46630.03;;;-143.51;100.00
44309;BME280;30022;55.846;37.340;2023-05-06T05:57:11;46604.38;;;-143.51;100.00
44309;BME280;30022;55.846;37.340;2023-05-06T05:59:37;46632.03;;;-143.51;100.00
44309;BME280;30022;55.846;37.340;2023-05-06T06:02:05;46590.53;;;-143.51;100.00
44309;BME280;30022;55.846;37.340;2023-05-06T06:04:31;46570.78;;;-143.51;100.00
44309;BME280;30022;55.846;37.340;2023-05-06T06:06:56;46606.34;;;-143.51;100.00
44309;BME280;30022;55.846;37.340;2023-05-06T06:09:23;46574.75;;;-143.51;100.00
44309;BME280;30022;55.846;37.340;2023-05-06T06:11:49;46574.75;;;-143.51;100.00
44309;BME280;30022;55.846;37.340;2023-05-06T06:14:15;46604.38;;;-143.51;100.00
44309;BME280;30022;55.846;37.340;2023-05-06T06:16:41;46598.44;;;-143.51;100.00
44309;BME280;30022;55.846;37.340;2023-05-06T06:19:06;46584.63;;;-143.51;100.00
44309;BME280;30022;55.846;37.340;2023-05-06T06:21:32;46612.28;;;-143.51;100.00
44309;BME280;30022;55.846;37.340;2023-05-06T06:23:59;46568.81;;;-143.51;100.00
44309;BME280;30022;55.846;37.340;2023-05-06T06:26:24;46578.69;;;-143.51;100.00
44309;BME280;30022;55.846;37.340;2023-05-06T06:28:50;46608.31;;;-143.51;100.00
44309;BME280;30022;55.846;37.340;2023-05-06T06:31:16;46576.72;;;-143.51;100.00
44309;BME280;30022;55.846;37.340;2023-05-06T06:33:41;46594.50;;;-143.51;100.00
44309;BME280;30022;55.846;37.340;2023-05-06T06:36:07;46549.06;;;-143.51;98.22
44309;BME280;30022;55.846;37.340;2023-05-06T06:38:32;46541.19;;;-143.51;97.10
44309;BME280;30022;55.846;37.340;2023-05-06T06:40:58;46547.09;;;-143.51;96.95
44309;BME280;30022;55.846;37.340;2023-05-06T06:43:24;46570.78;;;-143.51;96.57
44309;BME280;30022;55.846;37.340;2023-05-06T06:46:05;46551.06;;;-143.51;95.69
44309;BME280;30022;55.846;37.340;2023-05-06T06:48:30;46547.09;;;-143.51;95.84
44309;BME280;30022;55.846;37.340;2023-05-06T06:50:56;46549.06;;;-143.51;95.63
44309;BME280;30022;55.846;37.340;2023-05-06T06:53:22;46543.16;;;-143.51;95.65
44309;BME280;30022;55.846;37.340;2023-05-06T06:55:47;46566.84;;;-143.51;94.75
44309;BME280;30022;55.846;37.340;2023-05-06T06:58:13;46539.19;;;-143.51;93.54
44309;BME280;30022;55.846;37.340;2023-05-06T07:00:38;46537.22;;;-143.51;93.49
44309;BME280;30022;55.846;37.340;2023-05-06T07:03:04;46553.03;;;-143.51;91.67
44309;BME280;30022;55.846;37.340;2023-05-06T07:05:30;46531.31;;;-143.51;90.67
44309;BME280;30022;55.846;37.340;2023-05-06T07:07:55;46566.84;;;-143.51;91.32
44309;BME280;30022;55.846;37.340;2023-05-06T07:10:21;46543.16;;;-143.51;90.41
44309;BME280;30022;55.846;37.340;2023-05-06T07:12:46;46535.25;;;-143.51;91.03
44309;BME280;30022;55.846;37.340;2023-05-06T07:15:13;46541.19;;;-143.51;89.67
44309;BME280;30022;55.846;37.340;2023-05-06T07:17:39;46541.19;;;-143.51;90.03
44309;BME280;30022;55.846;37.340;2023-05-06T07:20:05;46535.25;;;-143.51;89.58
44309;BME280;30022;55.846;37.340;2023-05-06T07:22:31;46531.31;;;-143.51;88.76
44309;BME280;30022;55.846;37.340;2023-05-06T07:24:57;46537.22;;;-143.51;88.17
44309;BME280;30022;55.846;37.340;2023-05-06T07:27:22;46535.25;;;-143.51;88.35
44309;BME280;30022;55.846;37.340;2023-05-06T07:29:48;46545.13;;;-143.51;88.29
44309;BME280;30022;55.846;37.340;2023-05-06T07:32:15;46584.63;;;-143.51;88.67
44309;BME280;30022;55.846;37.340;2023-05-06T07:34:41;46556.97;;;-143.51;89.26
44309;BME280;30022;55.846;37.340;2023-05-06T07:37:07;46521.44;;;-143.51;88.49
44309;BME280;30022;55.846;37.340;2023-05-06T07:39:32;46513.53;;;-143.51;88.73
44309;BME280;30022;55.846;37.340;2023-05-06T07:41:58;46531.31;;;-143.51;89.68
44309;BME280;30022;55.846;37.340;2023-05-06T07:44:23;46537.22;;;-143.51;90.18
44309;BME280;30022;55.846;37.340;2023-05-06T07:46:49;46555.00;;;-143.51;90.01
44309;BME280;30022;55.846;37.340;2023-05-06T07:49:15;46551.06;;;-143.51;89.66
44309;BME280;30022;55.846;37.340;2023-05-06T07:51:41;46539.19;;;-143.51;88.68
44309;BME280;30022;55.846;37.340;2023-05-06T07:54:06;46545.13;;;-143.51;88.87
44309;BME280;30022;55.846;37.340;2023-05-06T07:56:32;46537.22;;;-143.51;88.37
44309;BME280;30022;55.846;37.340;2023-05-06T07:58:57;46531.31;;;-143.51;88.17
44309;BME280;30022;55.846;37.340;2023-05-06T08:01:24;46553.03;;;-143.51;88.58
44309;BME280;30022;55.846;37.340;2023-05-06T08:03:49;46521.44;;;-143.51;87.87
44309;BME280;30022;55.846;37.340;2023-05-06T08:06:15;46529.31;;;-143.51;88.20
44309;BME280;30022;55.846;37.340;2023-05-06T08:08:41;46564.88;;;-143.51;87.53
44309;BME280;30022;55.846;37.340;2023-05-06T08:11:07;46556.97;;;-143.51;87.99
44309;BME280;30022;55.846;37.340;2023-05-06T08:13:32;46529.31;;;-143.51;87.32
44309;BME280;30022;55.846;37.340;2023-05-06T08:15:58;46566.84;;;-143.51;85.96
44309;BME280;30022;55.846;37.340;2023-05-06T08:18:24;46545.13;;;-143.51;82.86
44309;BME280;30022;55.846;37.340;2023-05-06T08:20:50;46529.31;;;-143.51;83.19
44309;BME280;30022;55.846;37.340;2023-05-06T08:23:16;46521.44;;;-143.51;79.72
44309;BME280;30022;55.846;37.340;2023-05-06T08:25:42;46519.44;;;-143.51;77.98
44309;BME280;30022;55.846;37.340;2023-05-06T08:28:08;46525.38;;;-143.51;78.19
44309;BME280;30022;55.846;37.340;2023-05-06T08:30:34;46529.31;;;-143.51;78.41
44309;BME280;30022;55.846;37.340;2023-05-06T08:33:00;46541.19;;;-143.51;79.13
44309;BME280;30022;55.846;37.340;2023-05-06T08:35:26;46545.13;;;-143.51;78.02
44309;BME280;30022;55.846;37.340;2023-05-06T08:37:51;46515.50;;;-143.51;76.72
44309;BME280;30022;55.846;37.340;2023-05-06T08:40:18;46543.16;;;-143.51;76.09
44309;BME280;30022;55.846;37.340;2023-05-06T08:42:45;46535.25;;;-143.51;76.46
44309;BME280;30022;55.846;37.340;2023-05-06T08:45:17;46523.41;;;-143.51;77.21
44309;BME280;30022;55.846;37.340;2023-05-06T08:47:43;46519.44;;;-143.51;76.78
44309;BME280;30022;55.846;37.340;2023-05-06T08:50:09;46549.06;;;-143.51;75.53
44309;BME280;30022;55.846;37.340;2023-05-06T08:52:35;46517.47;;;-143.51;70.78
44309;BME280;30022;55.846;37.340;2023-05-06T08:55:01;46555.00;;;-143.51;71.49
44309;BME280;30022;55.846;37.340;2023-05-06T08:57:32;46531.31;;;-143.51;68.92
44309;BME280;30022;55.846;37.340;2023-05-06T08:59:58;46566.84;;;-143.51;66.15
44309;BME280;30022;55.846;37.340;2023-05-06T09:02:24;46527.34;;;-143.51;65.43
44309;BME280;30022;55.846;37.340;2023-05-06T09:04:50;46539.19;;;-143.51;65.82
44309;BME280;30022;55.846;37.340;2023-05-06T09:07:16;46489.84;;;-143.51;65.35
44309;BME280;30022;55.846;37.340;2023-05-06T09:09:42;46515.50;;;-143.51;65.72
44309;BME280;30022;55.846;37.340;2023-05-06T09:12:08;46515.50;;;-143.51;65.70
44309;BME280;30022;55.846;37.340;2023-05-06T09:14:34;46513.53;;;-143.51;65.99
44309;BME280;30022;55.846;37.340;2023-05-06T09:17:00;46499.72;;;-143.51;65.38
44309;BME280;30022;55.846;37.340;2023-05-06T09:19:25;46541.19;;;-143.51;62.32
44309;BME280;30022;55.846;37.340;2023-05-06T09:21:51;46525.38;;;-143.51;62.01
44309;BME280;30022;55.846;37.340;2023-05-06T09:24:16;46539.19;;;-143.51;61.13
44309;BME280;30022;55.846;37.340;2023-05-06T09:26:43;46535.25;;;-143.51;61.03
44309;BME280;30022;55.846;37.340;2023-05-06T09:29:09;46527.34;;;-143.51;60.72
44309;BME280;30022;55.846;37.340;2023-05-06T09:31:44;46527.34;;;-143.51;60.77
44309;BME280;30022;55.846;37.340;2023-05-06T09:34:10;46505.63;;;-143.51;60.42
44309;BME280;30022;55.846;37.340;2023-05-06T09:36:36;46541.19;;;-143.51;60.59
44309;BME280;30022;55.846;37.340;2023-05-06T09:39:02;46525.38;;;-143.51;59.60
44309;BME280;30022;55.846;37.340;2023-05-06T09:41:28;46521.44;;;-143.51;58.72
44309;BME280;30022;55.846;37.340;2023-05-06T09:43:54;46537.22;;;-143.51;60.44
44309;BME280;30022;55.846;37.340;2023-05-06T09:46:21;46513.53;;;-143.51;60.30
44309;BME280;30022;55.846;37.340;2023-05-06T09:48:51;46513.53;;;-143.51;60.34
44309;BME280;30022;55.846;37.340;2023-05-06T09:51:17;46495.75;;;-143.51;58.16
44309;BME280;30022;55.846;37.340;2023-05-06T09:53:43;46521.44;;;-143.51;58.07
44309;BME280;30022;55.846;37.340;2023-05-06T09:56:10;46531.31;;;-143.51;57.17
44309;BME280;30022;55.846;37.340;2023-05-06T09:58:36;46525.38;;;-143.51;56.55
44309;BME280;30022;55.846;37.340;2023-05-06T10:01:02;46519.44;;;-143.51;57.61
44309;BME280;30022;55.846;37.340;2023-05-06T10:03:31;46505.63;;;-143.51;57.18
44309;BME280;30022;55.846;37.340;2023-05-06T10:05:59;46539.19;;;-143.51;56.84
44309;BME280;30022;55.846;37.340;2023-05-06T10:08:25;46543.16;;;-143.51;57.68
44309;BME280;30022;55.846;37.340;2023-05-06T10:10:51;46543.16;;;-143.51;57.84
44309;BME280;30022;55.846;37.340;2023-05-06T10:13:21;46515.50;;;-143.51;57.58
44309;BME280;30022;55.846;37.340;2023-05-06T10:15:49;46541.19;;;-143.51;56.86
44309;BME280;30022;55.846;37.340;2023-05-06T10:18:15;46539.19;;;-143.51;57.51
44309;BME280;30022;55.846;37.340;2023-05-06T10:20:41;46533.28;;;-143.51;56.12
44309;BME280;30022;55.846;37.340;2023-05-06T10:25:55;46525.38;;;-143.51;55.56
44309;BME280;30022;55.846;37.340;2023-05-06T10:28:21;46517.47;;;-143.51;55.33
44309;BME280;30022;55.846;37.340;2023-05-06T10:30:48;46513.53;;;-143.51;55.79
44309;BME280;30022;55.846;37.340;2023-05-06T10:33:15;46513.53;;;-143.51;55.29
44309;BME280;30022;55.846;37.340;2023-05-06T10:38:08;46515.50;;;-143.51;55.99
44309;BME280;30022;55.846;37.340;2023-05-06T10:40:35;46523.41;;;-143.51;55.92
44309;BME280;30022;55.846;37.340;2023-05-06T10:46:06;46521.44;;;-143.51;53.69
44309;BME280;30022;55.846;37.340;2023-05-06T10:48:37;46519.44;;;-143.51;53.79
44309;BME280;30022;55.846;37.340;2023-05-06T10:51:24;46513.53;;;-143.51;53.75
44309;BME280;30022;55.846;37.340;2023-05-06T10:56:36;46523.41;;;-143.51;52.27
44309;BME280;30022;55.846;37.340;2023-05-06T10:59:06;46541.19;;;-143.51;52.04
44309;BME280;30022;55.846;37.340;2023-05-06T11:01:32;46543.16;;;-143.51;50.42
44309;BME280;30022;55.846;37.340;2023-05-06T11:04:17;46533.28;;;-143.51;50.68
44309;BME280;30022;55.846;37.340;2023-05-06T11:06:44;46515.50;;;-143.51;50.46
44309;BME280;30022;55.846;37.340;2023-05-06T11:09:14;46525.38;;;-143.51;50.16
44309;BME280;30022;55.846;37.340;2023-05-06T11:11:52;46523.41;;;-143.51;48.74
44309;BME280;30022;55.846;37.340;2023-05-06T11:14:28;46533.28;;;-143.51;48.07
44309;BME280;30022;55.846;37.340;2023-05-06T11:16:54;46521.44;;;-143.51;46.90
44309;BME280;30022;55.846;37.340;2023-05-06T11:19:22;46529.31;;;-143.51;45.27
44309;BME280;30022;55.846;37.340;2023-05-06T11:21:48;46513.53;;;-143.51;44.93
44309;BME280;30022;55.846;37.340;2023-05-06T11:24:17;46547.09;;;-143.51;45.40
44309;BME280;30022;55.846;37.340;2023-05-06T11:26:46;46531.31;;;-143.51;45.11
44309;BME280;30022;55.846;37.340;2023-05-06T11:29:16;46515.50;;;-143.51;45.62
44309;BME280;30022;55.846;37.340;2023-05-06T11:31:42;46535.25;;;-143.51;45.61
44309;BME280;30022;55.846;37.340;2023-05-06T11:34:09;46525.38;;;-143.51;46.49
44309;BME280;30022;55.846;37.340;2023-05-06T11:36:36;46547.09;;;-143.51;46.64
44309;BME280;30022;55.846;37.340;2023-05-06T11:39:04;46531.31;;;-143.51;46.63
44309;BME280;30022;55.846;37.340;2023-05-06T11:41:32;46515.50;;;-143.51;46.62
44309;BME280;30022;55.846;37.340;2023-05-06T11:43:59;46515.50;;;-143.51;47.27
44309;BME280;30022;55.846;37.340;2023-05-06T11:46:24;46543.16;;;-143.51;46.47
44309;BME280;30022;55.846;37.340;2023-05-06T11:48:53;46491.81;;;-143.51;45.83
44309;BME280;30022;55.846;37.340;2023-05-06T11:51:22;46527.34;;;-143.51;45.57
44309;BME280;30022;55.846;37.340;2023-05-06T11:53:48;46523.41;;;-143.51;46.00
44309;BME280;30022;55.846;37.340;2023-05-06T11:56:14;46535.25;;;-143.51;48.84
44309;BME280;30022;55.846;37.340;2023-05-06T11:58:40;46535.25;;;-143.51;51.53
44309;BME280;30022;55.846;37.340;2023-05-06T12:01:09;46549.06;;;-143.51;52.78
44309;BME280;30022;55.846;37.340;2023-05-06T12:03:35;46511.56;;;-143.51;53.08
44309;BME280;30022;55.846;37.340;2023-05-06T12:06:03;46531.31;;;-143.51;52.53
44309;BME280;30022;55.846;37.340;2023-05-06T12:08:30;46539.19;;;-143.51;49.27
44309;BME280;30022;55.846;37.340;2023-05-06T12:10:57;46525.38;;;-143.51;47.90
44309;BME280;30022;55.846;37.340;2023-05-06T12:13:26;46521.44;;;-143.51;47.68
44309;BME280;30022;55.846;37.340;2023-05-06T12:15:56;46507.59;;;-143.51;47.15
44309;BME280;30022;55.846;37.340;2023-05-06T12:18:29;46515.50;;;-143.51;46.11
44309;BME280;30022;55.846;37.340;2023-05-06T12:20:55;46513.53;;;-143.51;46.59
44309;BME280;30022;55.846;37.340;2023-05-06T12:23:21;46527.34;;;-143.51;46.80
44309;BME280;30022;55.846;37.340;2023-05-06T12:26:08;46539.19;;;-143.51;46.98
44309;BME280;30022;55.846;37.340;2023-05-06T12:28:34;46513.53;;;-143.51;47.12
44309;BME280;30022;55.846;37.340;2023-05-06T12:31:16;46531.31;;;-143.51;47.06
44309;BME280;30022;55.846;37.340;2023-05-06T12:33:42;46541.19;;;-143.51;47.34
44309;BME280;30022;55.846;37.340;2023-05-06T12:36:08;46525.38;;;-143.51;48.00
44309;BME280;30022;55.846;37.340;2023-05-06T12:38:34;46535.25;;;-143.51;48.58
44309;BME280;30022;55.846;37.340;2023-05-06T12:40:59;46549.06;;;-143.51;49.22
44309;BME280;30022;55.846;37.340;2023-05-06T12:43:28;46537.22;;;-143.51;49.55